createdAt,value
2022-08-09T00:00:19.676Z,0.00
2022-08-09T00:02:49.780Z,0.00
2022-08-09T00:06:18.425Z,0.00
2022-08-09T00:08:45.842Z,0.03
2022-08-09T00:11:25.190Z,0.00
2022-08-09T00:13:56.611Z,0.00
2022-08-09T00:16:26.563Z,0.10
2022-08-09T00:19:09.396Z,0.00
2022-08-09T00:21:56.117Z,0.00
2022-08-09T00:24:27.503Z,0.00
2022-08-09T00:26:59.849Z,0.07
2022-08-09T00:29:39.892Z,0.00
2022-08-09T00:32:25.657Z,0.00
2022-08-09T00:34:56.714Z,0.00
2022-08-09T00:37:32.301Z,0.00
2022-08-09T00:40:14.128Z,0.10
2022-08-09T00:44:25.434Z,0.10
2022-08-09T00:45:36.479Z,0.00
2022-08-09T00:48:06.624Z,0.10
2022-08-09T00:50:37.932Z,0.00
2022-08-09T00:53:10.242Z,0.10
2022-08-09T00:56:05.450Z,0.00
2022-08-09T00:58:31.618Z,0.10
2022-08-09T01:01:00.849Z,0.10
2022-08-09T01:03:46.185Z,0.10
2022-08-09T01:06:22.592Z,0.03
2022-08-09T01:09:06.168Z,0.00
2022-08-09T01:11:53.067Z,0.00
2022-08-09T01:14:31.622Z,0.00
2022-08-09T01:17:08.977Z,0.00
2022-08-09T01:19:57.228Z,0.10
2022-08-09T01:23:03.164Z,0.07
2022-08-09T01:25:57.723Z,0.00
2022-08-09T01:28:28.443Z,0.10
2022-08-09T01:30:59.883Z,0.00
2022-08-09T01:33:35.415Z,0.10
2022-08-09T01:36:08.618Z,0.00
2022-08-09T01:38:40.539Z,0.07
2022-08-09T01:41:17.234Z,0.00
2022-08-09T01:43:52.575Z,0.00
2022-08-09T01:46:26.555Z,0.03
2022-08-09T01:48:59.875Z,0.10
2022-08-09T01:51:32.265Z,0.10
2022-08-09T01:54:15.146Z,0.00
2022-08-09T01:56:51.646Z,0.00
2022-08-09T01:59:23.998Z,0.00
2022-08-09T02:01:57.859Z,0.10
2022-08-09T02:04:28.885Z,0.00
2022-08-09T02:07:18.383Z,0.00
2022-08-09T02:10:05.412Z,0.10
2022-08-09T02:12:36.652Z,0.07
2022-08-09T02:15:15.316Z,0.10
2022-08-09T02:18:01.673Z,0.00
2022-08-09T02:20:41.551Z,0.00
2022-08-09T02:23:18.618Z,0.10
2022-08-09T02:25:55.802Z,0.00
2022-08-09T02:28:32.394Z,0.10
2022-08-09T02:31:06.067Z,0.07
2022-08-09T02:34:07.298Z,0.10
2022-08-09T02:36:32.729Z,0.00
2022-08-09T02:39:07.015Z,0.00
2022-08-09T02:41:47.005Z,0.10
2022-08-09T02:44:29.307Z,0.10
2022-08-09T02:47:04.527Z,0.10
2022-08-09T02:49:38.337Z,0.00
2022-08-09T02:52:13.770Z,0.00
2022-08-09T02:54:53.929Z,0.00
2022-08-09T02:57:26.747Z,0.00
2022-08-09T03:00:20.567Z,0.00
2022-08-09T03:02:58.326Z,0.00
2022-08-09T03:05:34.434Z,0.10
2022-08-09T03:08:05.780Z,0.10
2022-08-09T03:10:36.506Z,0.00
2022-08-09T03:13:08.547Z,0.00
2022-08-09T03:16:06.514Z,0.10
2022-08-09T03:18:32.061Z,0.03
2022-08-09T03:21:03.063Z,0.07
2022-08-09T03:23:33.639Z,0.10
2022-08-09T03:26:06.069Z,0.00
2022-08-09T03:28:35.998Z,0.00
2022-08-09T03:31:10.339Z,0.00
2022-08-09T03:33:54.808Z,0.10
2022-08-09T03:36:27.116Z,0.00
2022-08-09T03:38:57.165Z,0.07
2022-08-09T03:41:30.255Z,0.10
2022-08-09T03:44:15.536Z,0.10
2022-08-09T03:46:44.458Z,0.00
2022-08-09T03:49:19.343Z,0.00
2022-08-09T03:51:56.040Z,0.10
2022-08-09T03:54:31.287Z,0.00
2022-08-09T03:57:02.245Z,0.10
2022-08-09T03:59:43.381Z,0.00
2022-08-09T04:02:26.673Z,0.10
2022-08-09T04:05:00.899Z,0.10
2022-08-09T04:07:33.809Z,0.00
2022-08-09T04:10:28.764Z,0.00
2022-08-09T04:13:04.398Z,0.07
2022-08-09T04:15:52.121Z,0.10
2022-08-09T04:18:22.425Z,0.10
2022-08-09T04:20:55.676Z,0.10
2022-08-09T04:23:25.804Z,0.00
2022-08-09T04:25:55.251Z,0.10
2022-08-09T04:28:33.506Z,0.10
2022-08-09T04:31:09.366Z,0.10
2022-08-09T04:33:51.930Z,0.10
2022-08-09T04:36:26.188Z,0.00
2022-08-09T04:38:55.564Z,0.10
2022-08-09T04:41:33.012Z,0.10
2022-08-09T04:44:11.095Z,0.00
2022-08-09T04:46:59.038Z,0.00
2022-08-09T04:49:52.906Z,0.00
2022-08-09T04:52:27.066Z,0.10
2022-08-09T04:54:56.936Z,0.00
2022-08-09T04:57:27.041Z,0.00
2022-08-09T05:00:16.600Z,0.10
2022-08-09T05:02:48.762Z,0.00
2022-08-09T05:05:32.445Z,0.10
2022-08-09T05:08:14.019Z,0.00
2022-08-09T05:10:44.501Z,0.00
2022-08-09T05:13:13.185Z,0.10
2022-08-09T05:15:52.327Z,0.00
2022-08-09T05:18:39.482Z,0.07
2022-08-09T05:21:23.243Z,0.10
2022-08-09T05:24:01.320Z,0.00
2022-08-09T05:26:37.144Z,0.03
2022-08-09T05:29:21.679Z,0.00
2022-08-09T05:31:57.566Z,0.10
2022-08-09T05:34:30.843Z,0.10
2022-08-09T05:37:06.410Z,0.00
2022-08-09T05:39:43.510Z,0.00
2022-08-09T05:42:17.677Z,0.00
2022-08-09T05:45:02.603Z,0.10
2022-08-09T05:47:33.127Z,0.03
2022-08-09T05:50:26.652Z,0.00
2022-08-09T05:52:55.044Z,0.00
2022-08-09T05:55:25.847Z,0.00
2022-08-09T05:58:01.560Z,0.00
2022-08-09T06:00:33.289Z,0.00
2022-08-09T06:03:04.017Z,0.10
2022-08-09T06:05:57.189Z,0.00
2022-08-09T06:08:28.464Z,0.00
2022-08-09T06:10:59.427Z,0.03
2022-08-09T06:13:34.059Z,0.00
2022-08-09T06:16:04.739Z,0.10
2022-08-09T06:18:34.633Z,0.00
2022-08-09T06:21:05.559Z,0.03
2022-08-09T06:23:57.844Z,0.00
2022-08-09T06:26:34.826Z,0.00
2022-08-09T06:29:08.870Z,0.10
2022-08-09T06:32:24.653Z,0.00
2022-08-09T06:34:39.439Z,0.10
2022-08-09T06:37:53.029Z,0.00
2022-08-09T06:40:28.080Z,0.00
2022-08-09T06:43:07.728Z,0.00
2022-08-09T06:46:05.557Z,0.00
2022-08-09T06:48:33.670Z,0.00
2022-08-09T06:51:05.703Z,0.00
2022-08-09T06:53:38.367Z,0.10
2022-08-09T06:56:07.797Z,0.00
2022-08-09T07:00:47.383Z,0.00
2022-08-09T07:01:35.597Z,0.00
2022-08-09T07:04:22.925Z,0.00
2022-08-09T07:06:53.280Z,0.10
2022-08-09T07:09:55.637Z,0.00
2022-08-09T07:12:17.708Z,0.00
2022-08-09T07:14:53.398Z,0.00
2022-08-09T07:17:23.381Z,0.00
2022-08-09T07:19:55.783Z,0.00
2022-08-09T07:22:34.795Z,0.00
2022-08-09T07:25:09.806Z,0.00
2022-08-09T07:27:43.210Z,0.03
2022-08-09T07:30:25.122Z,0.00
2022-08-09T07:32:55.050Z,0.10
2022-08-09T07:35:25.670Z,0.00
2022-08-09T07:37:59.596Z,0.00
2022-08-09T07:40:41.518Z,0.00
2022-08-09T07:43:18.275Z,0.00
2022-08-09T07:45:48.726Z,0.03
2022-08-09T07:48:30.558Z,0.10
2022-08-09T07:52:06.297Z,0.00
2022-08-09T07:54:15.154Z,0.00
2022-08-09T07:56:50.024Z,0.00
2022-08-09T07:59:33.661Z,0.00
2022-08-09T08:02:10.859Z,0.00
2022-08-09T08:04:48.575Z,0.10
2022-08-09T08:09:01.222Z,0.00
2022-08-09T08:10:10.515Z,0.10
2022-08-09T08:12:43.791Z,0.00
2022-08-09T08:15:16.676Z,0.03
2022-08-09T08:17:54.558Z,0.00
2022-08-09T08:20:29.491Z,0.00
2022-08-09T08:23:01.743Z,0.08
2022-08-09T08:25:43.851Z,0.10
2022-08-09T08:28:15.566Z,0.00
2022-08-09T08:30:47.768Z,0.00
2022-08-09T08:33:52.451Z,0.00
2022-08-09T08:36:29.332Z,0.03
2022-08-09T08:39:03.055Z,0.10
2022-08-09T08:41:50.822Z,0.00
2022-08-09T08:44:27.249Z,0.00
2022-08-09T08:46:59.665Z,0.00
2022-08-09T08:49:38.651Z,0.00
2022-08-09T08:52:48.632Z,0.00
2022-08-09T08:55:07.074Z,0.00
2022-08-09T08:57:37.557Z,0.00
2022-08-09T09:00:16.853Z,0.00
2022-08-09T09:02:52.767Z,0.00
2022-08-09T09:05:59.203Z,0.10
2022-08-09T09:08:30.633Z,0.00
2022-08-09T09:11:07.976Z,0.00
2022-08-09T09:13:54.814Z,0.00
2022-08-09T09:16:30.836Z,0.00
2022-08-09T09:22:11.759Z,0.00
2022-08-09T09:24:47.897Z,0.00
2022-08-09T09:28:06.897Z,0.00
2022-08-09T09:30:27.404Z,0.00
2022-08-09T09:33:16.412Z,0.00
2022-08-09T09:36:02.002Z,0.00
2022-08-09T09:38:46.081Z,0.00
2022-08-09T09:41:33.077Z,0.00
2022-08-09T09:44:12.120Z,0.00
2022-08-09T09:46:51.075Z,0.00
2022-08-09T09:49:23.625Z,0.00
2022-08-09T09:52:35.577Z,0.10
2022-08-09T09:55:16.718Z,0.10
2022-08-09T09:58:04.269Z,0.10
2022-08-09T10:00:55.276Z,0.00
2022-08-09T10:03:43.122Z,0.00
2022-08-09T10:06:13.006Z,0.10
2022-08-09T10:08:42.713Z,0.00
2022-08-09T10:12:01.348Z,0.10
2022-08-09T10:14:30.417Z,0.10
2022-08-09T10:17:24.378Z,0.00
2022-08-09T10:19:53.023Z,0.10
2022-08-09T10:22:34.293Z,0.10
2022-08-09T10:25:12.494Z,0.10
2022-08-09T10:27:57.771Z,0.10
2022-08-09T10:34:08.827Z,0.00
2022-08-09T10:36:11.584Z,0.10
2022-08-09T10:38:55.882Z,0.10
2022-08-09T10:41:26.234Z,0.10
2022-08-09T10:44:02.205Z,0.10
2022-08-09T10:46:57.617Z,0.10
2022-08-09T10:49:46.935Z,0.00
2022-08-09T10:52:44.500Z,0.10
2022-08-09T10:55:24.918Z,0.10
2022-08-09T10:57:55.636Z,0.10
2022-08-09T11:01:11.388Z,0.20
2022-08-09T11:03:46.963Z,0.10
2022-08-09T11:06:23.645Z,0.17
2022-08-09T11:08:53.908Z,0.10
2022-08-09T11:11:24.518Z,0.10
2022-08-09T11:14:32.088Z,0.10
2022-08-09T11:17:02.964Z,0.10
2022-08-09T11:20:11.559Z,0.10
2022-08-09T11:23:09.985Z,0.20
2022-08-09T11:25:49.280Z,0.10
2022-08-09T11:28:56.010Z,0.10
2022-08-09T11:31:53.118Z,0.10
2022-08-09T11:34:36.278Z,0.10
2022-08-09T11:37:07.471Z,0.10
2022-08-09T11:40:04.861Z,0.10
2022-08-09T11:42:44.907Z,0.10
2022-08-09T11:45:21.746Z,0.20
2022-08-09T11:47:52.899Z,0.10
2022-08-09T11:50:55.786Z,0.10
2022-08-09T11:53:58.759Z,0.20
2022-08-09T11:56:41.596Z,0.10
2022-08-09T11:59:14.371Z,0.10
2022-08-09T12:02:16.975Z,0.10
2022-08-09T12:04:38.094Z,0.20
2022-08-09T12:07:09.060Z,0.10
2022-08-09T12:09:38.385Z,0.20
2022-08-09T12:12:12.383Z,0.10
2022-08-09T12:15:07.950Z,0.15
2022-08-09T12:17:44.515Z,0.17
2022-08-09T12:20:21.679Z,0.22
2022-08-09T12:22:55.781Z,0.10
2022-08-09T12:25:36.181Z,0.20
2022-08-09T12:29:12.151Z,0.20
2022-08-09T12:31:11.130Z,0.10
2022-08-09T12:34:00.871Z,0.20
2022-08-09T12:36:31.972Z,0.20
2022-08-09T12:39:04.300Z,0.10
2022-08-09T12:41:39.784Z,0.10
2022-08-09T12:44:12.916Z,0.20
2022-08-09T12:46:43.375Z,0.10
2022-08-09T12:49:20.895Z,0.20
2022-08-09T12:52:02.319Z,0.20
2022-08-09T12:56:12.209Z,0.15
2022-08-09T12:57:40.385Z,0.20
2022-08-09T13:00:15.651Z,0.20
2022-08-09T13:02:57.351Z,0.20
2022-08-09T13:05:50.847Z,0.20
2022-08-09T13:08:21.272Z,0.20
2022-08-09T13:11:13.260Z,0.20
2022-08-09T13:14:43.996Z,0.20
2022-08-09T13:16:49.419Z,0.20
2022-08-09T13:20:08.644Z,0.20
2022-08-09T13:22:37.087Z,0.17
2022-08-09T13:25:07.856Z,0.10
2022-08-09T13:27:48.330Z,0.10
2022-08-09T13:31:10.842Z,0.20
2022-08-09T13:33:17.176Z,0.20
2022-08-09T13:36:41.467Z,0.17
2022-08-09T13:41:19.352Z,0.20
2022-08-09T13:42:11.016Z,0.10
2022-08-09T13:44:50.498Z,0.20
2022-08-09T13:47:49.425Z,0.20
2022-08-09T13:50:30.712Z,0.20
2022-08-09T13:53:01.047Z,0.20
2022-08-09T13:55:37.126Z,0.20
2022-08-09T13:58:19.172Z,0.20
2022-08-09T14:00:59.156Z,0.20
2022-08-09T14:04:03.923Z,0.20
2022-08-09T14:06:31.631Z,0.20
2022-08-09T14:09:10.349Z,0.10
2022-08-09T14:12:17.654Z,0.20
2022-08-09T14:14:53.705Z,0.20
2022-08-09T14:17:32.687Z,0.20
2022-08-09T14:20:17.278Z,0.20
2022-08-09T14:22:49.131Z,0.20
2022-08-09T14:25:21.866Z,0.17
2022-08-09T14:28:09.859Z,0.20
2022-08-09T14:30:44.428Z,0.20
2022-08-09T14:33:43.188Z,0.20
2022-08-09T14:36:43.821Z,0.20
2022-08-09T14:39:46.157Z,0.20
2022-08-09T14:42:32.734Z,0.20
2022-08-09T14:46:38.894Z,0.20
2022-08-09T14:48:12.265Z,0.20
2022-08-09T14:51:05.443Z,0.20
2022-08-09T14:53:48.579Z,0.20
2022-08-09T14:56:34.841Z,0.20
2022-08-09T14:59:41.281Z,0.20
2022-08-09T15:02:21.230Z,0.20
2022-08-09T15:04:53.230Z,0.20
2022-08-09T15:07:24.641Z,0.20
2022-08-09T15:10:14.290Z,0.20
2022-08-09T15:12:54.719Z,0.20
2022-08-09T15:15:29.441Z,0.20
2022-08-09T15:18:21.576Z,0.20
2022-08-09T15:21:56.704Z,0.20
2022-08-09T15:24:12.369Z,0.15
2022-08-09T15:26:48.364Z,0.25
2022-08-09T15:30:57.712Z,0.20
2022-08-09T15:32:37.455Z,0.30
2022-08-09T15:35:44.081Z,0.22
2022-08-09T15:38:31.332Z,0.20
2022-08-09T15:41:22.026Z,0.20
2022-08-09T15:44:07.675Z,0.20
2022-08-09T15:46:51.144Z,0.20
2022-08-09T15:49:41.264Z,0.20
2022-08-09T15:52:26.574Z,0.20
2022-08-09T15:55:07.107Z,0.20
2022-08-09T15:57:51.361Z,0.20
2022-08-09T16:00:26.773Z,0.20
2022-08-09T16:03:29.288Z,0.20
2022-08-09T16:06:34.933Z,0.20
2022-08-09T16:09:32.295Z,0.25
2022-08-09T16:12:37.262Z,0.20
2022-08-09T16:16:10.541Z,0.20
2022-08-09T16:18:59.613Z,0.30
2022-08-09T16:22:02.991Z,0.20
2022-08-09T16:25:07.575Z,0.20
2022-08-09T16:28:06.287Z,0.20
2022-08-09T16:30:59.615Z,0.20
2022-08-09T16:36:51.260Z,0.20
2022-08-09T16:40:05.418Z,0.20
2022-08-09T16:42:48.351Z,0.20
2022-08-09T16:45:44.041Z,0.20
2022-08-09T16:51:32.562Z,0.20
2022-08-09T16:54:25.735Z,0.20
2022-08-09T17:00:05.155Z,0.20
2022-08-09T17:02:40.689Z,0.10
2022-08-09T17:06:06.531Z,0.10
2022-08-09T17:08:58.915Z,0.20
2022-08-09T17:11:56.597Z,0.20
2022-08-09T17:14:49.051Z,0.20
2022-08-09T17:17:51.144Z,0.20
2022-08-09T17:20:50.870Z,0.20
2022-08-09T17:24:21.167Z,0.20
2022-08-09T17:26:29.491Z,0.13
2022-08-09T17:29:25.369Z,0.20
2022-08-09T17:32:20.221Z,0.20
2022-08-09T17:35:21.101Z,0.20
2022-08-09T17:38:32.253Z,0.20
2022-08-09T17:41:17.871Z,0.20
2022-08-09T17:44:47.650Z,0.20
2022-08-09T17:47:00.835Z,0.20
2022-08-09T17:49:54.226Z,0.10
2022-08-09T17:53:04.768Z,0.20
2022-08-09T17:55:55.777Z,0.20
2022-08-09T17:58:49.335Z,0.10
2022-08-09T18:01:58.017Z,0.20
2022-08-09T18:04:38.659Z,0.10
2022-08-09T18:07:34.448Z,0.10
2022-08-09T18:10:09.572Z,0.00
2022-08-09T18:13:43.539Z,0.10
2022-08-09T18:16:08.470Z,0.10
2022-08-09T18:18:49.118Z,0.10
2022-08-09T18:21:56.784Z,0.10
2022-08-09T18:24:45.690Z,0.10
2022-08-09T18:28:03.924Z,0.10
2022-08-09T18:30:35.022Z,0.10
2022-08-09T18:33:24.443Z,0.13
2022-08-09T18:36:25.376Z,0.00
2022-08-09T18:39:05.035Z,0.10
2022-08-09T18:41:42.318Z,0.10
2022-08-09T18:44:34.825Z,0.10
2022-08-09T18:47:37.028Z,0.10
2022-08-09T18:50:09.033Z,0.10
2022-08-09T18:52:41.757Z,0.05
2022-08-09T18:55:45.311Z,0.03
2022-08-09T18:58:32.008Z,0.10
2022-08-09T19:01:19.341Z,0.00
2022-08-09T19:04:06.423Z,0.10
2022-08-09T19:06:50.515Z,0.00
2022-08-09T19:10:13.384Z,0.10
2022-08-09T19:12:54.950Z,0.00
2022-08-09T19:16:03.199Z,0.10
2022-08-09T19:18:57.529Z,0.00
2022-08-09T19:21:47.935Z,0.00
2022-08-09T19:28:42.719Z,0.03
2022-08-09T19:40:08.511Z,0.00
2022-08-09T19:42:40.699Z,0.10
2022-08-09T19:45:15.560Z,0.00
2022-08-09T19:51:06.058Z,0.00
2022-08-09T19:53:37.099Z,0.10
2022-08-09T19:56:15.881Z,0.00
2022-08-09T19:58:56.420Z,0.10
2022-08-09T20:01:52.350Z,0.10
2022-08-09T20:04:36.808Z,0.00
2022-08-09T20:07:21.142Z,0.03
2022-08-09T20:09:50.311Z,0.00
2022-08-09T20:12:31.833Z,0.00
2022-08-09T20:16:38.239Z,0.00
2022-08-09T20:17:59.386Z,0.00
2022-08-09T20:20:28.489Z,0.00
2022-08-09T20:22:57.448Z,0.00
2022-08-09T20:25:26.549Z,0.00
2022-08-09T20:27:56.954Z,0.00
2022-08-09T20:30:25.631Z,0.00
2022-08-09T20:32:54.568Z,0.00
2022-08-09T20:35:23.596Z,0.00
2022-08-09T20:38:22.514Z,0.10
2022-08-09T20:40:41.407Z,0.10
2022-08-09T20:43:18.693Z,0.00
2022-08-09T20:46:00.492Z,0.10
2022-08-09T20:48:42.828Z,0.00
2022-08-09T20:51:19.653Z,0.00
2022-08-09T20:53:49.866Z,0.00
2022-08-09T20:56:21.850Z,0.10
2022-08-09T20:58:59.192Z,0.00
2022-08-09T21:01:35.146Z,0.00
2022-08-09T21:05:55.075Z,0.00
2022-08-09T21:07:12.294Z,0.00
2022-08-09T21:09:45.548Z,0.00
2022-08-09T21:14:48.197Z,0.00
2022-08-09T21:18:23.974Z,0.00
2022-08-09T21:20:18.482Z,0.00
2022-08-09T21:22:55.568Z,0.00
2022-08-09T21:25:44.356Z,0.00
2022-08-09T21:28:34.247Z,0.00
2022-08-09T21:31:16.681Z,0.00
2022-08-09T21:33:50.368Z,0.00
2022-08-09T21:36:28.146Z,0.00
2022-08-09T21:38:58.840Z,0.00
2022-08-09T21:42:00.193Z,0.00
2022-08-09T21:44:34.648Z,0.10
2022-08-09T21:47:07.610Z,0.00
2022-08-09T21:49:39.289Z,0.00
2022-08-09T21:52:16.479Z,0.00
2022-08-09T21:54:56.911Z,0.00
2022-08-09T21:57:38.413Z,0.00
2022-08-09T22:00:25.277Z,0.00
2022-08-09T22:02:59.206Z,0.00
2022-08-09T22:05:35.375Z,0.00
2022-08-09T22:08:13.179Z,0.00
2022-08-09T22:11:48.792Z,0.00
2022-08-09T22:13:34.671Z,0.00
2022-08-09T22:16:07.889Z,0.03
2022-08-09T22:18:53.640Z,0.00
2022-08-09T22:21:24.863Z,0.10
2022-08-09T22:23:59.049Z,0.10
2022-08-09T22:26:34.276Z,0.00
2022-08-09T22:29:09.035Z,0.00
2022-08-09T22:31:44.659Z,0.10
2022-08-09T22:34:27.944Z,0.00
2022-08-09T22:36:58.142Z,0.00
2022-08-09T22:39:58.028Z,0.00
2022-08-09T22:42:22.172Z,0.08
2022-08-09T22:45:00.251Z,0.10
2022-08-09T22:48:33.722Z,0.00
2022-08-09T22:50:33.313Z,0.00
2022-08-09T22:53:03.299Z,0.10
2022-08-09T22:56:06.175Z,0.00
2022-08-09T22:58:32.219Z,0.10
2022-08-09T23:01:02.679Z,0.00
2022-08-09T23:04:04.816Z,0.00
2022-08-09T23:06:29.855Z,0.00
2022-08-09T23:09:05.065Z,0.10
2022-08-09T23:11:33.758Z,0.00
2022-08-09T23:14:03.623Z,0.08
2022-08-09T23:16:32.596Z,0.10
2022-08-09T23:19:01.239Z,0.08
2022-08-09T23:21:34.434Z,0.05
2022-08-09T23:24:07.000Z,0.00
2022-08-09T23:26:36.443Z,0.00
2022-08-09T23:29:05.893Z,0.03
2022-08-09T23:31:34.630Z,0.08
2022-08-09T23:34:03.900Z,0.00
2022-08-09T23:36:35.300Z,0.00
2022-08-09T23:39:05.503Z,0.00
2022-08-09T23:41:34.991Z,0.00
2022-08-09T23:44:04.944Z,0.05
2022-08-09T23:46:34.196Z,0.00
2022-08-09T23:49:03.112Z,0.10
2022-08-09T23:51:33.612Z,0.00
2022-08-09T23:54:03.528Z,0.00
2022-08-09T23:56:51.919Z,0.00
2022-08-09T23:59:22.479Z,0.00
